Washington, District of Columbia
Traffic Map
Current Weather Conditions
Washington, District of Columbia
Clear
Clear
20°
Feels Like: 20°
Wind Chill: 20° Ceiling: Unl
Heat Index: 20° Visibility: 9mi
Dew Point: 15° Wind: 3mph
Humidity: 73% Direction: 220° (SW)
Pressure: 30.07in Gusts: 0mph
Raw Report DataKDCA 310752Z 22003KT 9SM CLR 20/15 A3007 RMK AO2 SLP182 T02000150
Traffic Incident Summary
Active as of:
Severity:
Category:
InformationThere was an issue retrieving the traffic information for this location. Please try a different location or try again shortly.
Advertisements
Track Severe Weather on mobile